Time,TemperatureF,DewpointF,PressureIn,WindDirection,WindDirectionDegrees,WindSpeedMPH,WindSpeedGustMPH,Humidity,HourlyPrecipIn,Conditions,Clouds,dailyrainin,SoftwareType,DateUTC
2013-01-28 00:04:00,36.5,35.2,30.12,West,261,1.0,0.0,95,0.02,,,0.00,WeatherTracker,2013-01-28 08:04:00,
2013-01-28 00:09:00,36.5,35.2,30.13,West,261,0.0,0.0,95,0.02,,,0.00,WeatherTracker,2013-01-28 08:09:00,
2013-01-28 00:14:00,36.5,35.2,30.13,West,261,0.0,0.0,95,0.02,,,0.01,WeatherTracker,2013-01-28 08:14:00,
2013-01-28 00:19:00,36.5,35.2,30.13,West,261,0.0,0.0,95,0.02,,,0.01,WeatherTracker,2013-01-28 08:19:00,
2013-01-28 00:24:00,36.4,35.1,30.12,West,261,0.0,0.0,95,0.02,,,0.01,WeatherTracker,2013-01-28 08:24:00,
2013-01-28 00:29:00,36.4,35.1,30.12,West,261,0.0,0.0,95,0.02,,,0.01,WeatherTracker,2013-01-28 08:29:00,
2013-01-28 00:34:00,36.4,35.1,30.12,West,261,0.0,0.0,95,0.02,,,0.01,WeatherTracker,2013-01-28 08:34:00,
2013-01-28 00:39:00,36.4,35.1,30.12,West,261,0.0,0.0,95,0.02,,,0.01,WeatherTracker,2013-01-28 08:39:00,
2013-01-28 00:44:00,36.4,35.1,30.12,West,261,0.0,0.0,95,0.02,,,0.01,WeatherTracker,2013-01-28 08:44:00,
2013-01-28 00:49:00,36.4,35.1,30.13,West,263,0.0,0.0,95,0.01,,,0.01,WeatherTracker,2013-01-28 08:49:00,
2013-01-28 00:54:00,36.4,35.4,30.12,West,263,0.0,0.0,96,0.02,,,0.02,WeatherTracker,2013-01-28 08:54:00,
2013-01-28 00:59:00,36.5,35.5,30.12,West,263,0.0,0.0,96,0.02,,,0.02,WeatherTracker,2013-01-28 08:59:00,
2013-01-28 01:04:00,36.6,35.3,30.12,NW,308,0.0,0.0,95,0.02,,,0.02,WeatherTracker,2013-01-28 09:04:00,
2013-01-28 01:09:00,36.6,35.3,30.12,NW,308,1.0,0.0,95,0.02,,,0.02,WeatherTracker,2013-01-28 09:09:00,
2013-01-28 01:14:00,36.7,35.4,30.12,NW,308,0.0,0.0,95,0.01,,,0.02,WeatherTracker,2013-01-28 09:14:00,
2013-01-28 01:19:00,36.8,35.5,30.12,NW,308,0.0,0.0,95,0.01,,,0.02,WeatherTracker,2013-01-28 09:19:00,
2013-01-28 01:24:00,36.8,35.5,30.12,NW,308,0.0,0.0,95,0.01,,,0.02,WeatherTracker,2013-01-28 09:24:00,
2013-01-28 01:30:00,36.8,35.5,30.12,NW,308,0.0,0.0,95,0.02,,,0.03,WeatherTracker,2013-01-28 09:30:00,
2013-01-28 01:35:00,36.8,35.5,30.13,NW,308,1.0,0.0,95,0.02,,,0.03,WeatherTracker,2013-01-28 09:35:00,
2013-01-28 01:40:00,36.8,35.5,30.13,SW,222,0.0,0.0,95,0.02,,,0.03,WeatherTracker,2013-01-28 09:40:00,
2013-01-28 01:45:00,36.8,35.5,30.13,SW,222,0.0,0.0,95,0.02,,,0.03,WeatherTracker,2013-01-28 09:45:00,
2013-01-28 01:50:00,36.8,35.5,30.13,SW,222,0.0,0.0,95,0.02,,,0.03,WeatherTracker,2013-01-28 09:50:00,
2013-01-28 01:55:00,36.8,35.2,30.13,SW,233,1.0,0.0,94,0.01,,,0.03,WeatherTracker,2013-01-28 09:55:00,
2013-01-28 02:00:00,36.8,35.2,30.13,WSW,258,1.0,0.0,94,0.01,,,0.03,WeatherTracker,2013-01-28 10:00:00,
2013-01-28 02:05:00,36.8,35.2,30.14,West,261,0.0,0.0,94,0.01,,,0.03,WeatherTracker,2013-01-28 10:05:00,
2013-01-28 02:10:00,36.8,35.2,30.14,WNW,292,0.0,0.0,94,0.01,,,0.03,WeatherTracker,2013-01-28 10:10:00,
2013-01-28 02:15:00,36.8,35.2,30.14,WNW,296,1.0,0.0,94,0.01,,,0.03,WeatherTracker,2013-01-28 10:15:00,
2013-01-28 02:20:00,36.8,35.2,30.14,SSW,213,0.0,0.0,94,0.01,,,0.03,WeatherTracker,2013-01-28 10:20:00,
2013-01-28 02:25:00,36.8,35.2,30.15,SSW,213,0.0,0.0,94,0.01,,,0.03,WeatherTracker,2013-01-28 10:25:00,
2013-01-28 02:30:00,36.9,35.3,30.15,West,278,0.0,0.0,94,0.00,,,0.03,WeatherTracker,2013-01-28 10:30:00,
2013-01-28 02:35:00,36.9,35.3,30.15,West,281,1.0,0.0,94,0.00,,,0.03,WeatherTracker,2013-01-28 10:35:00,
2013-01-28 02:40:00,36.9,35.3,30.15,West,266,3.0,0.0,94,0.00,,,0.03,WeatherTracker,2013-01-28 10:40:00,
2013-01-28 02:45:00,36.9,35.3,30.15,WNW,286,1.0,0.0,94,0.00,,,0.03,WeatherTracker,2013-01-28 10:45:00,
2013-01-28 02:50:00,36.9,35.3,30.15,WNW,282,1.0,0.0,94,0.00,,,0.03,WeatherTracker,2013-01-28 10:50:00,
2013-01-28 02:56:00,37.0,35.4,30.15,WNW,302,0.0,0.0,94,0.00,,,0.03,WeatherTracker,2013-01-28 10:56:00,
2013-01-28 03:01:00,37.0,35.4,30.15,WNW,302,0.0,0.0,94,0.00,,,0.03,WeatherTracker,2013-01-28 11:01:00,
2013-01-28 03:06:00,36.9,35.3,30.16,WNW,302,0.0,0.0,94,0.00,,,0.03,WeatherTracker,2013-01-28 11:06:00,
2013-01-28 03:11:00,36.9,35.3,30.16,WNW,302,0.0,0.0,94,0.00,,,0.03,WeatherTracker,2013-01-28 11:11:00,
2013-01-28 03:16:00,36.9,35.3,30.15,WNW,298,2.0,0.0,94,0.01,,,0.04,WeatherTracker,2013-01-28 11:16:00,
2013-01-28 03:21:00,37.0,35.4,30.15,West,269,2.0,0.0,94,0.01,,,0.04,WeatherTracker,2013-01-28 11:21:00,
2013-01-28 03:26:00,37.0,35.4,30.16,SSW,196,5.0,0.0,94,0.01,,,0.04,WeatherTracker,2013-01-28 11:26:00,
2013-01-28 03:31:00,36.9,35.3,30.16,NNW,345,1.0,0.0,94,0.01,,,0.04,WeatherTracker,2013-01-28 11:31:00,
2013-01-28 03:36:00,36.9,35.3,30.16,WNW,289,2.0,0.0,94,0.01,,,0.04,WeatherTracker,2013-01-28 11:36:00,
2013-01-28 03:41:00,36.9,35.1,30.16,West,259,0.0,0.0,93,0.01,,,0.04,WeatherTracker,2013-01-28 11:41:00,
2013-01-28 03:46:00,37.0,35.2,30.16,WNW,294,2.0,0.0,93,0.01,,,0.04,WeatherTracker,2013-01-28 11:46:00,
2013-01-28 03:51:00,36.9,35.1,30.16,West,273,0.0,0.0,93,0.01,,,0.04,WeatherTracker,2013-01-28 11:51:00,
2013-01-28 03:56:00,36.9,35.1,30.16,West,273,1.0,0.0,93,0.01,,,0.04,WeatherTracker,2013-01-28 11:56:00,
2013-01-28 04:01:00,36.9,35.1,30.16,West,273,0.0,0.0,93,0.01,,,0.04,WeatherTracker,2013-01-28 12:01:00,
2013-01-28 04:06:00,36.9,35.1,30.16,West,279,0.0,0.0,93,0.01,,,0.04,WeatherTracker,2013-01-28 12:06:00,
2013-01-28 04:11:00,36.9,35.1,30.16,NW,315,0.0,0.0,93,0.01,,,0.04,WeatherTracker,2013-01-28 12:11:00,
2013-01-28 04:16:00,36.9,35.1,30.16,WNW,283,1.0,0.0,93,0.00,,,0.04,WeatherTracker,2013-01-28 12:16:00,
2013-01-28 04:21:00,37.0,35.2,30.16,West,259,2.0,0.0,93,0.00,,,0.04,WeatherTracker,2013-01-28 12:21:00,
2013-01-28 04:26:00,37.0,35.2,30.16,NW,323,2.0,0.0,93,0.00,,,0.04,WeatherTracker,2013-01-28 12:26:00,
2013-01-28 04:31:00,36.8,35.0,30.16,NW,323,3.0,0.0,93,0.00,,,0.04,WeatherTracker,2013-01-28 12:31:00,
2013-01-28 04:36:00,36.6,34.8,30.16,North,355,1.0,0.0,93,0.00,,,0.04,WeatherTracker,2013-01-28 12:36:00,
2013-01-28 04:41:00,36.5,34.9,30.16,NNW,346,1.0,0.0,94,0.00,,,0.04,WeatherTracker,2013-01-28 12:41:00,
2013-01-28 04:46:00,36.5,34.9,30.16,NNW,345,2.0,0.0,94,0.00,,,0.04,WeatherTracker,2013-01-28 12:46:00,
2013-01-28 04:51:00,36.5,34.7,30.16,West,275,1.0,0.0,93,0.00,,,0.04,WeatherTracker,2013-01-28 12:51:00,
2013-01-28 04:57:00,36.6,34.8,30.16,NW,321,1.0,0.0,93,0.00,,,0.04,WeatherTracker,2013-01-28 12:57:00,
2013-01-28 05:02:00,36.7,34.9,30.16,West,264,0.0,0.0,93,0.00,,,0.04,WeatherTracker,2013-01-28 13:02:00,
2013-01-28 05:07:00,36.8,35.0,30.16,West,276,0.0,0.0,93,0.00,,,0.04,WeatherTracker,2013-01-28 13:07:00,
2013-01-28 05:12:00,36.8,35.2,30.16,West,277,0.0,0.0,94,0.00,,,0.04,WeatherTracker,2013-01-28 13:12:00,
2013-01-28 05:17:00,36.9,35.3,30.16,West,260,0.0,0.0,94,0.00,,,0.04,WeatherTracker,2013-01-28 13:17:00,
2013-01-28 05:22:00,36.9,35.3,30.16,NW,306,1.0,0.0,94,0.00,,,0.04,WeatherTracker,2013-01-28 13:22:00,
2013-01-28 05:27:00,36.9,35.3,30.16,NW,306,0.0,0.0,94,0.00,,,0.04,WeatherTracker,2013-01-28 13:27:00,
2013-01-28 05:32:00,37.0,35.4,30.16,NW,306,0.0,0.0,94,0.00,,,0.04,WeatherTracker,2013-01-28 13:32:00,
2013-01-28 05:37:00,37.0,35.4,30.16,West,275,1.0,0.0,94,0.00,,,0.04,WeatherTracker,2013-01-28 13:37:00,
2013-01-28 05:42:00,37.0,35.4,30.16,SW,234,0.0,0.0,94,0.00,,,0.04,WeatherTracker,2013-01-28 13:42:00,
2013-01-28 05:47:00,37.0,35.4,30.16,WNW,295,0.0,0.0,94,0.01,,,0.05,WeatherTracker,2013-01-28 13:47:00,
2013-01-28 05:52:00,37.0,35.4,30.17,West,278,3.0,0.0,94,0.01,,,0.05,WeatherTracker,2013-01-28 13:52:00,
2013-01-28 05:57:00,37.0,35.4,30.17,WNW,294,2.0,0.0,94,0.01,,,0.05,WeatherTracker,2013-01-28 13:57:00,
2013-01-28 06:02:00,37.0,35.4,30.17,NW,312,1.0,0.0,94,0.01,,,0.05,WeatherTracker,2013-01-28 14:02:00,
2013-01-28 06:07:00,37.0,35.4,30.17,NNW,331,0.0,0.0,94,0.01,,,0.05,WeatherTracker,2013-01-28 14:07:00,
2013-01-28 06:12:00,37.0,35.4,30.18,WNW,287,0.0,0.0,94,0.01,,,0.05,WeatherTracker,2013-01-28 14:12:00,
2013-01-28 06:17:00,37.0,35.4,30.17,WNW,287,0.0,0.0,94,0.01,,,0.05,WeatherTracker,2013-01-28 14:17:00,
2013-01-28 06:22:00,37.1,35.5,30.17,North,355,0.0,0.0,94,0.01,,,0.05,WeatherTracker,2013-01-28 14:22:00,
2013-01-28 06:27:00,37.1,35.5,30.18,NW,306,0.0,0.0,94,0.01,,,0.05,WeatherTracker,2013-01-28 14:27:00,
2013-01-28 06:32:00,37.1,35.5,30.18,NW,306,0.0,0.0,94,0.01,,,0.05,WeatherTracker,2013-01-28 14:32:00,
2013-01-28 06:37:00,37.2,35.9,30.18,NW,306,0.0,0.0,95,0.01,,,0.05,WeatherTracker,2013-01-28 14:37:00,
2013-01-28 06:42:00,37.2,35.9,30.18,NW,306,0.0,0.0,95,0.02,,,0.06,WeatherTracker,2013-01-28 14:42:00,
2013-01-28 06:47:00,37.1,35.8,30.18,NW,306,0.0,0.0,95,0.01,,,0.06,WeatherTracker,2013-01-28 14:47:00,
2013-01-28 06:52:00,37.1,35.8,30.18,NW,306,0.0,0.0,95,0.01,,,0.06,WeatherTracker,2013-01-28 14:52:00,
2013-01-28 06:57:00,37.1,35.8,30.19,NW,306,1.0,0.0,95,0.01,,,0.06,WeatherTracker,2013-01-28 14:57:00,
2013-01-28 07:03:00,37.1,35.8,30.19,NW,306,0.0,0.0,95,0.01,,,0.06,WeatherTracker,2013-01-28 15:03:00,
2013-01-28 07:08:00,37.0,35.7,30.19,NW,306,2.0,0.0,95,0.01,,,0.06,WeatherTracker,2013-01-28 15:08:00,
2013-01-28 07:13:00,37.1,35.8,30.19,NW,306,0.0,0.0,95,0.02,,,0.07,WeatherTracker,2013-01-28 15:13:00,
2013-01-28 07:18:00,37.1,35.8,30.20,West,267,1.0,0.0,95,0.02,,,0.07,WeatherTracker,2013-01-28 15:18:00,
2013-01-28 07:23:00,37.1,35.8,30.20,West,271,1.0,0.0,95,0.02,,,0.07,WeatherTracker,2013-01-28 15:23:00,
2013-01-28 07:28:00,37.1,35.8,30.20,WNW,300,1.0,0.0,95,0.02,,,0.07,WeatherTracker,2013-01-28 15:28:00,
2013-01-28 07:33:00,37.1,35.5,30.20,WNW,286,0.0,0.0,94,0.02,,,0.07,WeatherTracker,2013-01-28 15:33:00,
2013-01-28 07:38:00,37.2,35.9,30.20,WNW,286,0.0,0.0,95,0.02,,,0.07,WeatherTracker,2013-01-28 15:38:00,
2013-01-28 07:43:00,37.2,35.9,30.21,WNW,288,1.0,0.0,95,0.02,,,0.08,WeatherTracker,2013-01-28 15:43:00,
2013-01-28 07:48:00,37.2,35.9,30.21,NW,310,1.0,0.0,95,0.02,,,0.08,WeatherTracker,2013-01-28 15:48:00,
2013-01-28 07:53:00,37.2,35.9,30.21,WNW,295,1.0,0.0,95,0.02,,,0.08,WeatherTracker,2013-01-28 15:53:00,
2013-01-28 07:58:00,37.2,35.9,30.21,NW,310,0.0,0.0,95,0.02,,,0.08,WeatherTracker,2013-01-28 15:58:00,
2013-01-28 08:03:00,37.3,36.0,30.21,WNW,300,0.0,0.0,95,0.02,,,0.08,WeatherTracker,2013-01-28 16:03:00,
2013-01-28 08:08:00,37.3,36.0,30.21,WNW,296,2.0,0.0,95,0.02,,,0.08,WeatherTracker,2013-01-28 16:08:00,
2013-01-28 08:13:00,37.3,36.0,30.21,WNW,285,0.0,0.0,95,0.02,,,0.09,WeatherTracker,2013-01-28 16:13:00,
2013-01-28 08:18:00,37.3,36.0,30.22,WNW,286,1.0,0.0,95,0.02,,,0.09,WeatherTracker,2013-01-28 16:18:00,
2013-01-28 08:23:00,37.4,36.1,30.22,WNW,286,0.0,0.0,95,0.02,,,0.09,WeatherTracker,2013-01-28 16:23:00,
2013-01-28 08:28:00,37.5,36.2,30.22,WNW,286,0.0,0.0,95,0.02,,,0.09,WeatherTracker,2013-01-28 16:28:00,
2013-01-28 08:33:00,37.6,36.3,30.22,WNW,286,1.0,0.0,95,0.02,,,0.09,WeatherTracker,2013-01-28 16:33:00,
2013-01-28 08:38:00,37.7,36.4,30.22,WNW,290,0.0,0.0,95,0.02,,,0.09,WeatherTracker,2013-01-28 16:38:00,
2013-01-28 08:43:00,37.8,36.5,30.22,WNW,290,2.0,0.0,95,0.02,,,0.10,WeatherTracker,2013-01-28 16:43:00,
2013-01-28 08:48:00,37.9,36.6,30.22,WNW,290,1.0,0.0,95,0.02,,,0.10,WeatherTracker,2013-01-28 16:48:00,
2013-01-28 08:53:00,38.0,36.7,30.22,WNW,290,1.0,0.0,95,0.02,,,0.10,WeatherTracker,2013-01-28 16:53:00,
2013-01-28 08:58:00,38.1,36.5,30.22,WNW,288,0.0,0.0,94,0.02,,,0.10,WeatherTracker,2013-01-28 16:58:00,
2013-01-28 09:03:00,38.1,36.5,30.23,WSW,240,0.0,0.0,94,0.02,,,0.10,WeatherTracker,2013-01-28 17:03:00,
2013-01-28 09:09:00,38.2,36.6,30.23,WSW,240,0.0,0.0,94,0.02,,,0.10,WeatherTracker,2013-01-28 17:09:00,
2013-01-28 09:14:00,38.3,36.7,30.23,WSW,239,0.0,0.0,94,0.01,,,0.10,WeatherTracker,2013-01-28 17:14:00,
2013-01-28 09:19:00,38.3,36.7,30.23,WSW,243,1.0,0.0,94,0.01,,,0.10,WeatherTracker,2013-01-28 17:19:00,
2013-01-28 09:24:00,38.3,36.7,30.23,WSW,257,0.0,0.0,94,0.02,,,0.11,WeatherTracker,2013-01-28 17:24:00,
2013-01-28 09:29:00,38.4,36.8,30.23,West,277,0.0,0.0,94,0.02,,,0.11,WeatherTracker,2013-01-28 17:29:00,
2013-01-28 09:34:00,38.4,36.8,30.23,West,277,0.0,0.0,94,0.02,,,0.11,WeatherTracker,2013-01-28 17:34:00,
2013-01-28 09:39:00,38.5,36.9,30.23,West,277,1.0,0.0,94,0.02,,,0.11,WeatherTracker,2013-01-28 17:39:00,
2013-01-28 09:44:00,38.6,37.0,30.24,West,277,1.0,0.0,94,0.01,,,0.11,WeatherTracker,2013-01-28 17:44:00,
2013-01-28 09:49:00,38.8,37.2,30.24,West,271,0.0,0.0,94,0.01,,,0.11,WeatherTracker,2013-01-28 17:49:00,
2013-01-28 09:54:00,39.0,37.4,30.24,WSW,244,0.0,0.0,94,0.01,,,0.11,WeatherTracker,2013-01-28 17:54:00,
2013-01-28 09:59:00,39.1,37.5,30.24,WSW,244,0.0,0.0,94,0.02,,,0.12,WeatherTracker,2013-01-28 17:59:00,
2013-01-28 10:04:00,39.2,37.6,30.24,WSW,244,0.0,0.0,94,0.02,,,0.12,WeatherTracker,2013-01-28 18:04:00,
2013-01-28 10:09:00,39.3,37.7,30.25,WSW,244,0.0,0.0,94,0.02,,,0.12,WeatherTracker,2013-01-28 18:09:00,
2013-01-28 10:14:00,39.4,37.8,30.25,WSW,244,0.0,0.0,94,0.02,,,0.12,WeatherTracker,2013-01-28 18:14:00,
2013-01-28 10:19:00,39.6,38.3,30.25,WSW,244,0.0,0.0,95,0.02,,,0.12,WeatherTracker,2013-01-28 18:19:00,
2013-01-28 10:24:00,39.7,38.4,30.25,WSW,257,0.0,0.0,95,0.01,,,0.12,WeatherTracker,2013-01-28 18:24:00,
2013-01-28 10:29:00,40.0,38.4,30.25,West,260,1.0,0.0,94,0.02,,,0.13,WeatherTracker,2013-01-28 18:29:00,
2013-01-28 10:34:00,40.2,38.6,30.25,WSW,258,0.0,0.0,94,0.02,,,0.13,WeatherTracker,2013-01-28 18:34:00,
2013-01-28 10:39:00,40.4,38.8,30.25,NW,325,2.0,0.0,94,0.02,,,0.13,WeatherTracker,2013-01-28 18:39:00,
2013-01-28 10:44:00,40.5,38.4,30.25,West,280,0.0,0.0,92,0.02,,,0.13,WeatherTracker,2013-01-28 18:44:00,
2013-01-28 10:49:00,40.6,38.5,30.26,WNW,290,2.0,0.0,92,0.02,,,0.13,WeatherTracker,2013-01-28 18:49:00,
2013-01-28 10:54:00,40.7,38.3,30.26,WNW,286,0.0,0.0,91,0.02,,,0.13,WeatherTracker,2013-01-28 18:54:00,
2013-01-28 10:59:00,40.8,38.4,30.25,SW,223,1.0,0.0,91,0.01,,,0.13,WeatherTracker,2013-01-28 18:59:00,
2013-01-28 11:05:00,41.0,38.9,30.25,WNW,299,1.0,0.0,92,0.01,,,0.13,WeatherTracker,2013-01-28 19:05:00,
2013-01-28 11:10:00,41.1,38.7,30.25,West,276,1.0,0.0,91,0.01,,,0.13,WeatherTracker,2013-01-28 19:10:00,
2013-01-28 11:15:00,41.3,39.2,30.26,West,262,0.0,0.0,92,0.01,,,0.13,WeatherTracker,2013-01-28 19:15:00,
2013-01-28 11:20:00,41.4,39.3,30.26,NW,314,1.0,0.0,92,0.01,,,0.13,WeatherTracker,2013-01-28 19:20:00,
2013-01-28 11:25:00,41.5,39.1,30.26,NW,313,1.0,0.0,91,0.01,,,0.13,WeatherTracker,2013-01-28 19:25:00,
2013-01-28 11:30:00,41.6,39.2,30.26,NW,312,2.0,0.0,91,0.00,,,0.13,WeatherTracker,2013-01-28 19:30:00,
2013-01-28 11:35:00,41.7,39.6,30.26,NW,321,2.0,0.0,92,0.00,,,0.13,WeatherTracker,2013-01-28 19:35:00,
2013-01-28 11:40:00,41.7,39.0,30.26,NW,319,0.0,0.0,90,0.00,,,0.13,WeatherTracker,2013-01-28 19:40:00,
2013-01-28 11:45:00,41.8,39.4,30.26,WNW,302,0.0,0.0,91,0.00,,,0.13,WeatherTracker,2013-01-28 19:45:00,
2013-01-28 11:50:00,41.8,39.6,30.25,NW,320,0.0,0.0,92,0.00,,,0.13,WeatherTracker,2013-01-28 19:50:00,
2013-01-28 11:55:00,41.8,39.1,30.25,WNW,287,1.0,0.0,90,0.01,,,0.14,WeatherTracker,2013-01-28 19:55:00,
2013-01-28 12:00:00,41.9,39.2,30.25,NW,315,1.0,0.0,90,0.01,,,0.14,WeatherTracker,2013-01-28 20:00:00,
2013-01-28 12:05:00,41.9,39.2,30.25,NW,315,0.0,0.0,90,0.01,,,0.14,WeatherTracker,2013-01-28 20:05:00,
2013-01-28 12:10:00,41.9,39.2,30.25,SW,227,3.0,0.0,90,0.01,,,0.14,WeatherTracker,2013-01-28 20:10:00,
2013-01-28 12:15:00,41.9,39.5,30.25,SW,227,0.0,0.0,91,0.01,,,0.14,WeatherTracker,2013-01-28 20:15:00,
2013-01-28 12:20:00,41.9,39.2,30.25,SW,229,1.0,0.0,90,0.01,,,0.14,WeatherTracker,2013-01-28 20:20:00,
2013-01-28 12:25:00,42.1,39.4,30.25,WSW,244,2.0,0.0,90,0.01,,,0.14,WeatherTracker,2013-01-28 20:25:00,
2013-01-28 12:30:00,42.1,38.8,30.25,West,259,0.0,0.0,88,0.01,,,0.14,WeatherTracker,2013-01-28 20:30:00,
2013-01-28 12:35:00,42.2,38.9,30.25,WSW,254,0.0,0.0,88,0.01,,,0.14,WeatherTracker,2013-01-28 20:35:00,
2013-01-28 12:40:00,42.2,38.9,30.25,SW,220,0.0,0.0,88,0.01,,,0.14,WeatherTracker,2013-01-28 20:40:00,
2013-01-28 12:45:00,42.2,38.6,30.25,SW,226,2.0,0.0,87,0.01,,,0.14,WeatherTracker,2013-01-28 20:45:00,
2013-01-28 12:50:00,42.2,38.6,30.25,WNW,293,2.0,0.0,87,0.01,,,0.14,WeatherTracker,2013-01-28 20:50:00,
2013-01-28 12:56:00,42.4,39.1,30.25,SSW,209,2.0,0.0,88,0.00,,,0.14,WeatherTracker,2013-01-28 20:56:00,
2013-01-28 13:01:00,42.4,39.1,30.24,SSW,209,0.0,0.0,88,0.00,,,0.14,WeatherTracker,2013-01-28 21:01:00,
2013-01-28 13:06:00,42.4,38.8,30.24,SSW,200,1.0,0.0,87,0.00,,,0.14,WeatherTracker,2013-01-28 21:06:00,
2013-01-28 13:11:00,42.4,38.8,30.24,WSW,248,0.0,0.0,87,0.00,,,0.14,WeatherTracker,2013-01-28 21:11:00,
2013-01-28 13:16:00,42.4,38.5,30.23,WSW,254,0.0,0.0,86,0.00,,,0.14,WeatherTracker,2013-01-28 21:16:00,
2013-01-28 13:21:00,42.3,38.7,30.24,West,259,2.0,0.0,87,0.00,,,0.14,WeatherTracker,2013-01-28 21:21:00,
2013-01-28 13:26:00,42.3,39.0,30.24,WSW,254,1.0,0.0,88,0.00,,,0.14,WeatherTracker,2013-01-28 21:26:00,
2013-01-28 13:31:00,42.2,38.6,30.24,SSW,205,0.0,0.0,87,0.00,,,0.14,WeatherTracker,2013-01-28 21:31:00,
2013-01-28 13:36:00,42.3,39.3,30.23,SSW,205,0.0,0.0,89,0.00,,,0.14,WeatherTracker,2013-01-28 21:36:00,
2013-01-28 13:41:00,42.4,39.4,30.23,SW,220,1.0,0.0,89,0.00,,,0.14,WeatherTracker,2013-01-28 21:41:00,
2013-01-28 13:46:00,42.6,39.3,30.23,NW,321,0.0,0.0,88,0.00,,,0.14,WeatherTracker,2013-01-28 21:46:00,
2013-01-28 13:51:00,42.7,39.1,30.23,WNW,291,1.0,0.0,87,0.00,,,0.14,WeatherTracker,2013-01-28 21:51:00,
2013-01-28 13:56:00,42.9,39.6,30.23,WNW,291,0.0,0.0,88,0.00,,,0.14,WeatherTracker,2013-01-28 21:56:00,
2013-01-28 14:01:00,42.9,39.3,30.23,West,261,1.0,0.0,87,0.00,,,0.14,WeatherTracker,2013-01-28 22:01:00,
2013-01-28 14:06:00,43.0,39.4,30.23,NW,310,0.0,0.0,87,0.00,,,0.14,WeatherTracker,2013-01-28 22:06:00,
2013-01-28 14:11:00,43.2,39.6,30.23,NW,314,0.0,0.0,87,0.00,,,0.14,WeatherTracker,2013-01-28 22:11:00,
2013-01-28 14:16:00,43.4,40.1,30.23,North,5,0.0,0.0,88,0.00,,,0.14,WeatherTracker,2013-01-28 22:16:00,
2013-01-28 14:21:00,43.5,39.9,30.23,West,263,2.0,0.0,87,0.00,,,0.14,WeatherTracker,2013-01-28 22:21:00,
2013-01-28 14:26:00,43.6,40.3,30.23,WNW,300,0.0,0.0,88,0.00,,,0.14,WeatherTracker,2013-01-28 22:26:00,
2013-01-28 14:31:00,43.7,40.1,30.23,North,350,0.0,0.0,87,0.00,,,0.14,WeatherTracker,2013-01-28 22:31:00,
2013-01-28 14:36:00,43.8,40.2,30.23,WNW,290,1.0,0.0,87,0.00,,,0.14,WeatherTracker,2013-01-28 22:36:00,
2013-01-28 14:41:00,43.7,39.8,30.23,NNW,330,0.0,0.0,86,0.00,,,0.14,WeatherTracker,2013-01-28 22:41:00,
2013-01-28 14:46:00,43.8,39.9,30.23,SW,233,0.0,0.0,86,0.00,,,0.14,WeatherTracker,2013-01-28 22:46:00,
2013-01-28 14:52:00,43.7,39.5,30.23,WNW,282,0.0,0.0,85,0.00,,,0.14,WeatherTracker,2013-01-28 22:52:00,
2013-01-28 14:57:00,43.6,39.4,30.23,SW,217,1.0,0.0,85,0.00,,,0.14,WeatherTracker,2013-01-28 22:57:00,
2013-01-28 15:02:00,43.6,39.7,30.23,West,270,2.0,0.0,86,0.00,,,0.14,WeatherTracker,2013-01-28 23:02:00,
2013-01-28 15:07:00,43.6,39.7,30.23,SW,223,2.0,0.0,86,0.00,,,0.14,WeatherTracker,2013-01-28 23:07:00,
2013-01-28 15:12:00,43.5,39.6,30.23,West,260,1.0,0.0,86,0.00,,,0.14,WeatherTracker,2013-01-28 23:12:00,
2013-01-28 15:17:00,43.6,40.0,30.23,West,259,1.0,0.0,87,0.00,,,0.14,WeatherTracker,2013-01-28 23:17:00,
2013-01-28 15:22:00,43.6,39.7,30.23,WNW,282,2.0,0.0,86,0.00,,,0.14,WeatherTracker,2013-01-28 23:22:00,
2013-01-28 15:27:00,43.5,39.6,30.23,NW,323,2.0,0.0,86,0.00,,,0.14,WeatherTracker,2013-01-28 23:27:00,
2013-01-28 15:32:00,43.5,39.9,30.23,WNW,293,2.0,0.0,87,0.00,,,0.14,WeatherTracker,2013-01-28 23:32:00,
2013-01-28 15:37:00,43.5,39.9,30.23,West,278,1.0,0.0,87,0.00,,,0.14,WeatherTracker,2013-01-28 23:37:00,
2013-01-28 15:42:00,43.5,39.9,30.23,WNW,292,2.0,0.0,87,0.00,,,0.14,WeatherTracker,2013-01-28 23:42:00,
2013-01-28 15:47:00,43.4,39.8,30.23,NW,309,0.0,0.0,87,0.00,,,0.14,WeatherTracker,2013-01-28 23:47:00,
2013-01-28 15:52:00,43.4,39.8,30.23,WNW,297,0.0,0.0,87,0.00,,,0.14,WeatherTracker,2013-01-28 23:52:00,
2013-01-28 15:57:00,43.3,39.7,30.23,WNW,298,2.0,0.0,87,0.00,,,0.14,WeatherTracker,2013-01-28 23:57:00,
2013-01-28 16:02:00,43.3,39.7,30.23,NW,314,0.0,0.0,87,0.00,,,0.14,WeatherTracker,2013-01-29 00:02:00,
2013-01-28 16:07:00,43.3,40.0,30.23,NW,319,2.0,0.0,88,0.00,,,0.14,WeatherTracker,2013-01-29 00:07:00,
2013-01-28 16:12:00,43.4,40.1,30.23,NW,319,0.0,0.0,88,0.00,,,0.14,WeatherTracker,2013-01-29 00:12:00,
2013-01-28 16:17:00,43.4,40.1,30.24,West,270,1.0,0.0,88,0.00,,,0.14,WeatherTracker,2013-01-29 00:17:00,
2013-01-28 16:22:00,43.4,40.1,30.24,West,270,0.0,0.0,88,0.00,,,0.14,WeatherTracker,2013-01-29 00:22:00,
2013-01-28 16:27:00,43.4,40.4,30.24,West,270,0.0,0.0,89,0.00,,,0.14,WeatherTracker,2013-01-29 00:27:00,
2013-01-28 16:32:00,43.3,40.0,30.24,West,269,0.0,0.0,88,0.00,,,0.14,WeatherTracker,2013-01-29 00:32:00,
2013-01-28 16:38:00,43.3,40.0,30.24,NW,307,0.0,0.0,88,0.00,,,0.14,WeatherTracker,2013-01-29 00:38:00,
2013-01-28 16:43:00,43.3,40.3,30.24,WSW,240,4.0,0.0,89,0.00,,,0.14,WeatherTracker,2013-01-29 00:43:00,
2013-01-28 16:48:00,43.2,39.9,30.24,West,265,1.0,0.0,88,0.00,,,0.14,WeatherTracker,2013-01-29 00:48:00,
2013-01-28 16:53:00,43.2,39.9,30.24,WNW,290,0.0,0.0,88,0.00,,,0.14,WeatherTracker,2013-01-29 00:53:00,
2013-01-28 16:58:00,43.1,40.1,30.24,WNW,290,0.0,0.0,89,0.00,,,0.14,WeatherTracker,2013-01-29 00:58:00,
2013-01-28 17:03:00,43.1,40.1,30.24,NW,325,0.0,0.0,89,0.00,,,0.14,WeatherTracker,2013-01-29 01:03:00,
2013-01-28 17:08:00,43.0,40.0,30.24,NNW,338,1.0,0.0,89,0.00,,,0.14,WeatherTracker,2013-01-29 01:08:00,
2013-01-28 17:13:00,43.0,40.3,30.24,NNW,338,1.0,0.0,90,0.00,,,0.14,WeatherTracker,2013-01-29 01:13:00,
2013-01-28 17:18:00,42.9,39.9,30.24,WSW,250,4.0,0.0,89,0.00,,,0.14,WeatherTracker,2013-01-29 01:18:00,
2013-01-28 17:23:00,42.9,40.2,30.25,WNW,286,0.0,0.0,90,0.00,,,0.14,WeatherTracker,2013-01-29 01:23:00,
2013-01-28 17:28:00,42.9,40.2,30.25,WNW,286,0.0,0.0,90,0.00,,,0.14,WeatherTracker,2013-01-29 01:28:00,
2013-01-28 17:33:00,42.8,40.1,30.25,WNW,286,0.0,0.0,90,0.00,,,0.14,WeatherTracker,2013-01-29 01:33:00,
2013-01-28 17:38:00,42.7,40.3,30.25,WNW,286,0.0,0.0,91,0.00,,,0.14,WeatherTracker,2013-01-29 01:38:00,
2013-01-28 17:43:00,42.7,40.0,30.25,WNW,286,0.0,0.0,90,0.00,,,0.14,WeatherTracker,2013-01-29 01:43:00,
2013-01-28 17:48:00,42.6,40.2,30.25,WNW,286,0.0,0.0,91,0.00,,,0.14,WeatherTracker,2013-01-29 01:48:00,
2013-01-28 17:53:00,42.6,40.2,30.26,WNW,286,0.0,0.0,91,0.00,,,0.14,WeatherTracker,2013-01-29 01:53:00,
2013-01-28 17:58:00,42.5,40.1,30.26,WNW,286,0.0,0.0,91,0.00,,,0.14,WeatherTracker,2013-01-29 01:58:00,
2013-01-28 18:03:00,42.5,39.8,30.26,WNW,298,0.0,0.0,90,0.00,,,0.14,WeatherTracker,2013-01-29 02:03:00,
2013-01-28 18:08:00,42.6,40.2,30.26,WNW,298,0.0,0.0,91,0.00,,,0.14,WeatherTracker,2013-01-29 02:08:00,
2013-01-28 18:13:00,42.5,40.1,30.26,WNW,298,0.0,0.0,91,0.00,,,0.14,WeatherTracker,2013-01-29 02:13:00,
2013-01-28 18:18:00,42.5,40.1,30.27,WNW,298,0.0,0.0,91,0.00,,,0.14,WeatherTracker,2013-01-29 02:18:00,
2013-01-28 18:23:00,42.4,40.2,30.27,WNW,298,0.0,0.0,92,0.00,,,0.14,WeatherTracker,2013-01-29 02:23:00,
2013-01-28 18:28:00,42.4,40.2,30.27,WNW,298,0.0,0.0,92,0.00,,,0.14,WeatherTracker,2013-01-29 02:28:00,
2013-01-28 18:34:00,42.3,40.1,30.27,WNW,298,0.0,0.0,92,0.00,,,0.14,WeatherTracker,2013-01-29 02:34:00,
2013-01-28 18:39:00,42.2,40.3,30.26,WNW,298,0.0,0.0,93,0.00,,,0.14,WeatherTracker,2013-01-29 02:39:00,
2013-01-28 18:44:00,42.2,40.3,30.27,WNW,298,0.0,0.0,93,0.00,,,0.14,WeatherTracker,2013-01-29 02:44:00,
2013-01-28 18:49:00,42.2,40.3,30.27,NW,306,0.0,0.0,93,0.00,,,0.14,WeatherTracker,2013-01-29 02:49:00,
2013-01-28 18:54:00,42.2,40.3,30.27,NW,306,0.0,0.0,93,0.01,,,0.15,WeatherTracker,2013-01-29 02:54:00,
2013-01-28 18:59:00,42.1,40.2,30.27,NW,306,0.0,0.0,93,0.01,,,0.15,WeatherTracker,2013-01-29 02:59:00,
2013-01-28 19:04:00,42.0,40.1,30.27,West,266,0.0,0.0,93,0.01,,,0.15,WeatherTracker,2013-01-29 03:04:00,
2013-01-28 19:09:00,42.0,40.1,30.27,West,267,0.0,0.0,93,0.01,,,0.15,WeatherTracker,2013-01-29 03:09:00,
2013-01-28 19:14:00,42.0,40.1,30.26,WNW,282,1.0,0.0,93,0.01,,,0.15,WeatherTracker,2013-01-29 03:14:00,
2013-01-28 19:19:00,41.9,40.0,30.26,WNW,298,0.0,0.0,93,0.01,,,0.15,WeatherTracker,2013-01-29 03:19:00,
2013-01-28 19:24:00,41.9,40.0,30.26,WNW,298,1.0,0.0,93,0.01,,,0.15,WeatherTracker,2013-01-29 03:24:00,
2013-01-28 19:29:00,41.9,40.0,30.26,West,261,1.0,0.0,93,0.01,,,0.15,WeatherTracker,2013-01-29 03:29:00,
2013-01-28 19:34:00,41.9,40.0,30.26,West,261,0.0,0.0,93,0.01,,,0.15,WeatherTracker,2013-01-29 03:34:00,
2013-01-28 19:39:00,41.9,40.0,30.26,West,261,0.0,0.0,93,0.01,,,0.15,WeatherTracker,2013-01-29 03:39:00,
2013-01-28 19:44:00,41.9,40.0,30.27,West,261,1.0,0.0,93,0.01,,,0.15,WeatherTracker,2013-01-29 03:44:00,
2013-01-28 19:49:00,41.9,40.0,30.27,West,261,0.0,0.0,93,0.01,,,0.15,WeatherTracker,2013-01-29 03:49:00,
2013-01-28 19:54:00,41.9,40.0,30.27,West,261,0.0,0.0,93,0.00,,,0.15,WeatherTracker,2013-01-29 03:54:00,
2013-01-28 19:59:00,41.8,40.2,30.27,West,261,0.0,0.0,94,0.00,,,0.15,WeatherTracker,2013-01-29 03:59:00,
2013-01-28 20:04:00,41.6,40.0,30.27,West,261,0.0,0.0,94,0.00,,,0.15,WeatherTracker,2013-01-29 04:04:00,
2013-01-28 20:09:00,41.6,40.0,30.27,West,261,0.0,0.0,94,0.00,,,0.15,WeatherTracker,2013-01-29 04:09:00,
2013-01-28 20:14:00,41.6,40.0,30.27,West,261,0.0,0.0,94,0.00,,,0.15,WeatherTracker,2013-01-29 04:14:00,
2013-01-28 20:19:00,41.5,39.9,30.27,West,261,0.0,0.0,94,0.00,,,0.15,WeatherTracker,2013-01-29 04:19:00,
2013-01-28 20:24:00,41.4,39.8,30.27,West,261,0.0,0.0,94,0.00,,,0.15,WeatherTracker,2013-01-29 04:24:00,
2013-01-28 20:30:00,41.4,39.8,30.27,West,261,0.0,0.0,94,0.00,,,0.15,WeatherTracker,2013-01-29 04:30:00,
2013-01-28 20:35:00,41.4,39.8,30.27,West,261,0.0,0.0,94,0.00,,,0.15,WeatherTracker,2013-01-29 04:35:00,
2013-01-28 20:40:00,41.3,40.0,30.27,West,261,0.0,0.0,95,0.00,,,0.15,WeatherTracker,2013-01-29 04:40:00,
2013-01-28 20:45:00,41.3,39.7,30.27,WSW,257,0.0,0.0,94,0.00,,,0.15,WeatherTracker,2013-01-29 04:45:00,
2013-01-28 20:50:00,41.3,40.0,30.28,WSW,257,0.0,0.0,95,0.00,,,0.15,WeatherTracker,2013-01-29 04:50:00,
2013-01-28 20:55:00,41.2,39.9,30.28,West,262,1.0,0.0,95,0.00,,,0.15,WeatherTracker,2013-01-29 04:55:00,
2013-01-28 21:00:00,41.2,39.6,30.28,West,262,0.0,0.0,94,0.00,,,0.15,WeatherTracker,2013-01-29 05:00:00,
2013-01-28 21:05:00,41.2,39.9,30.28,West,262,0.0,0.0,95,0.00,,,0.15,WeatherTracker,2013-01-29 05:05:00,
2013-01-28 21:10:00,41.2,39.6,30.28,West,262,0.0,0.0,94,0.00,,,0.15,WeatherTracker,2013-01-29 05:10:00,
2013-01-28 21:15:00,41.3,39.7,30.28,West,262,0.0,0.0,94,0.00,,,0.15,WeatherTracker,2013-01-29 05:15:00,
2013-01-28 21:20:00,41.4,39.8,30.29,West,262,0.0,0.0,94,0.00,,,0.15,WeatherTracker,2013-01-29 05:20:00,
2013-01-28 21:25:00,41.3,39.7,30.29,WSW,239,0.0,0.0,94,0.00,,,0.15,WeatherTracker,2013-01-29 05:25:00,
2013-01-28 21:30:00,41.3,39.7,30.29,WSW,239,0.0,0.0,94,0.00,,,0.15,WeatherTracker,2013-01-29 05:30:00,
2013-01-28 21:35:00,41.3,39.7,30.29,WSW,239,0.0,0.0,94,0.00,,,0.15,WeatherTracker,2013-01-29 05:35:00,
2013-01-28 21:40:00,41.2,39.3,30.29,WNW,292,1.0,0.0,93,0.00,,,0.15,WeatherTracker,2013-01-29 05:40:00,
2013-01-28 21:45:00,41.3,39.4,30.28,WSW,254,1.0,0.0,93,0.00,,,0.15,WeatherTracker,2013-01-29 05:45:00,
2013-01-28 21:50:00,41.2,39.3,30.28,WNW,285,0.0,0.0,93,0.00,,,0.15,WeatherTracker,2013-01-29 05:50:00,
2013-01-28 21:55:00,41.4,39.0,30.28,North,355,0.0,0.0,91,0.00,,,0.15,WeatherTracker,2013-01-29 05:55:00,
2013-01-28 22:01:00,41.5,39.4,30.28,South,175,0.0,0.0,92,0.00,,,0.15,WeatherTracker,2013-01-29 06:01:00,
2013-01-28 22:06:00,41.3,39.2,30.28,South,175,0.0,0.0,92,0.00,,,0.15,WeatherTracker,2013-01-29 06:06:00,
2013-01-28 22:11:00,41.3,39.4,30.28,South,175,0.0,0.0,93,0.00,,,0.15,WeatherTracker,2013-01-29 06:11:00,
2013-01-28 22:16:00,41.1,39.2,30.28,South,175,0.0,0.0,93,0.00,,,0.15,WeatherTracker,2013-01-29 06:16:00,
2013-01-28 22:21:00,41.1,39.2,30.28,South,175,0.0,0.0,93,0.00,,,0.15,WeatherTracker,2013-01-29 06:21:00,
2013-01-28 22:26:00,41.0,39.1,30.28,South,175,0.0,0.0,93,0.00,,,0.15,WeatherTracker,2013-01-29 06:26:00,
2013-01-28 22:31:00,41.0,39.1,30.28,South,175,1.0,0.0,93,0.00,,,0.15,WeatherTracker,2013-01-29 06:31:00,
2013-01-28 22:36:00,41.0,39.1,30.28,South,175,0.0,0.0,93,0.00,,,0.15,WeatherTracker,2013-01-29 06:36:00,
2013-01-28 22:41:00,40.9,39.0,30.28,South,175,0.0,0.0,93,0.00,,,0.15,WeatherTracker,2013-01-29 06:41:00,
2013-01-28 22:46:00,40.8,38.9,30.28,South,175,0.0,0.0,93,0.00,,,0.15,WeatherTracker,2013-01-29 06:46:00,
2013-01-28 22:51:00,40.7,39.1,30.28,South,175,0.0,0.0,94,0.00,,,0.15,WeatherTracker,2013-01-29 06:51:00,
2013-01-28 22:56:00,40.7,39.1,30.29,South,175,0.0,0.0,94,0.00,,,0.15,WeatherTracker,2013-01-29 06:56:00,
2013-01-28 23:01:00,40.6,39.0,30.29,South,175,0.0,0.0,94,0.00,,,0.15,WeatherTracker,2013-01-29 07:01:00,
2013-01-28 23:06:00,40.5,38.9,30.29,South,175,0.0,0.0,94,0.00,,,0.15,WeatherTracker,2013-01-29 07:06:00,
2013-01-28 23:11:00,40.5,38.9,30.29,South,175,0.0,0.0,94,0.00,,,0.15,WeatherTracker,2013-01-29 07:11:00,
2013-01-28 23:16:00,40.4,38.8,30.29,South,175,0.0,0.0,94,0.00,,,0.15,WeatherTracker,2013-01-29 07:16:00,
2013-01-28 23:21:00,40.4,38.8,30.28,South,175,0.0,0.0,94,0.00,,,0.15,WeatherTracker,2013-01-29 07:21:00,
2013-01-28 23:26:00,40.3,38.7,30.29,South,175,0.0,0.0,94,0.00,,,0.15,WeatherTracker,2013-01-29 07:26:00,
2013-01-28 23:31:00,40.2,38.6,30.28,South,175,0.0,0.0,94,0.00,,,0.15,WeatherTracker,2013-01-29 07:31:00,
2013-01-28 23:36:00,40.2,38.9,30.28,South,175,0.0,0.0,95,0.00,,,0.15,WeatherTracker,2013-01-29 07:36:00,
2013-01-28 23:41:00,40.2,38.9,30.28,South,175,0.0,0.0,95,0.00,,,0.15,WeatherTracker,2013-01-29 07:41:00,
2013-01-28 23:46:00,40.2,38.9,30.28,South,175,0.0,0.0,95,0.00,,,0.15,WeatherTracker,2013-01-29 07:46:00,
2013-01-28 23:51:00,40.2,38.9,30.28,South,175,0.0,0.0,95,0.00,,,0.15,WeatherTracker,2013-01-29 07:51:00,
2013-01-28 23:57:00,40.2,38.9,30.28,South,175,0.0,0.0,95,0.00,,,0.15,WeatherTracker,2013-01-29 07:57:00,